Thursday, September 29, 2016, 2:38 PM EDT

KFDK, Frederick, Frederick Municipal Airport

Location: Frederick, MD, United States Lat: 39.417
Local Time: 2:38 PM EDT (18:38 GMT) Lon: -77.374
Time Zone: US/Eastern Elev: 301 ft

Show me the last for .
Show Decoded

2016-09-29 13:50 METAR KFDK 291750Z 10010G19KT 5SM BR OVC009 20/20 A3019 =
2016-09-29 12:47 METAR KFDK 291647Z 09010G17KT 10SM BR OVC014 21/21 A3019 =
2016-09-29 11:50 METAR KFDK 291550Z 10011G18KT 7SM BR OVC012 20/20 A3018 =
2016-09-29 10:50 METAR KFDK 291450Z 10011G21KT 10SM OVC014 21/21 A3018 =
2016-09-29 09:47 METAR KFDK 291347Z 08011G16KT 10SM -RA OVC014 19/19 A3016 RMK LTG DSNT E =
2016-09-29 08:48 METAR KFDK 291248Z 11010G19KT 10SM BKN012 BKN055 OVC065 19/19 A3015 RMK LTG DSNT
                 E =
2016-09-29 07:46 METAR KFDK 291146Z 08015G21KT 5SM -RA BKN012 BKN026 OVC095 18/18 A3011 =
2016-09-29 06:48 METAR KFDK 291048Z 090110G21KT 2 1/2SM +RA SCT008 OVC012 18/18 A3011 RMK WND
                 080V140 =
2016-09-28 18:47 METAR KFDK 282247Z 36008KT 2SM +RA BKN009 BKN013 OVC021 18/18 A3005 =
2016-09-28 17:47 METAR KFDK 282147Z 02006KT 10SM OVC020 19/19 A3005 RMK LTG DSNT E SE =
2016-09-28 16:55 METAR KFDK 282055Z 04006KT 10SM SCT014 BKN031 OVC045 19/19 A3005 RMK LTG DSNT SE
                 =
2016-09-28 15:45 METAR KFDK 281945Z 36004KT 2 1/2SM +RA OVC016 19/19 A3006 =
2016-09-28 14:50 METAR KFDK 281850Z 08008KT 10SM SCT016 BKN030 OVC050 21/18 A3005 =

Support USWX by starting your Amazon purchase here.